Cheney, Washington
Current Conditions -  °F | °C
As of 11:58 PM on Friday 19 Dec 2014 (Local Time) from KSKA Reporting Station
Clear Clear  
Wind Chill: 33°   Ceiling: Unl
Heat Index: 33°   Visibility: 10mi
Dew Point: 33°   Wind: 3mph
Humidity: 99%   Direction: 120°ESE
Pressure: 29.97"   Gusts: NA
Location:  47.49°N, 117.57°W
Report Text: KSKA 200758Z AUTO 12003KT 10SM CLR 00/00 A2997 RMK AO2 UPB43 SLP170 P0000 T00040003
Loading
Personal Weather Stations






























Interactive Weather Map New forecast layout! Learn more

10-Day Weather Forecast

Advertisements
Track Severe Weather on mobile